Time;durP1;ratioP1;P1;durP2;ratioP2;P2;SDS_P1;SDS_P2;PMS_P1;PMS_P2;Temp;Humidity;BMP_temperature;BMP_pressure;BME280_temperature;BME280_humidity;BME280_pressure;Samples;Min_cycle;Max_cycle;Signal;HPM_P1;HPM_P2
2021/06/12 00:02:17;;;;;;;19.32;7.05;;;;;;;14.75;100.00;100247.37;1762213;81;20933;-39
2021/06/12 00:04:45;;;;;;;20.37;6.53;;;;;;;14.74;100.00;100246.55;1762315;81;20929;-40
2021/06/12 00:07:11;;;;;;;9.50;6.00;;;;;;;14.76;100.00;100249.94;1762367;81;21174;-39
2021/06/12 00:09:38;;;;;;;11.12;5.85;;;;;;;14.74;100.00;100255.66;1762324;81;20977;-39
2021/06/12 00:12:06;;;;;;;8.23;6.28;;;;;;;14.75;100.00;100255.19;1762389;81;21067;-39
2021/06/12 00:14:34;;;;;;;10.45;5.75;;;;;;;14.72;100.00;100257.92;1762269;81;20945;-38
2021/06/12 00:17:01;;;;;;;8.73;5.95;;;;;;;14.70;100.00;100259.27;1762335;81;21044;-39
2021/06/12 00:21:39;;;;;;;7.80;6.20;;;;;;;14.73;100.00;100255.27;1797705;79;22768;-39
2021/06/12 00:24:07;;;;;;;8.35;6.50;;;;;;;14.67;100.00;100260.69;1757425;81;20940;-40
2021/06/12 00:26:34;;;;;;;9.48;5.97;;;;;;;14.64;100.00;100256.44;1757596;81;21128;-39
2021/06/12 00:29:00;;;;;;;9.55;6.20;;;;;;;14.63;100.00;100257.34;1757390;81;20968;-40
2021/06/12 00:31:27;;;;;;;8.08;5.12;;;;;;;14.66;100.00;100257.69;1757423;81;20897;-39
2021/06/12 00:33:54;;;;;;;7.03;5.47;;;;;;;14.66;100.00;100257.22;1757337;81;20979;-40
2021/06/12 00:36:21;;;;;;;15.68;5.75;;;;;;;14.68;100.00;100251.97;1757514;81;21047;-39
2021/06/12 00:38:49;;;;;;;17.35;6.60;;;;;;;14.70;100.00;100257.09;1757583;81;21948;-38
2021/06/12 00:41:20;;;;;;;25.27;7.30;;;;;;;14.72;100.00;100259.22;1757437;81;21011;-39
2021/06/12 00:43:47;;;;;;;14.63;6.67;;;;;;;14.72;100.00;100262.69;1757366;81;20976;-38
2021/06/12 00:46:13;;;;;;;18.12;6.80;;;;;;;14.72;100.00;100269.64;1757367;81;21056;-38
2021/06/12 00:48:44;;;;;;;11.55;6.10;;;;;;;14.71;100.00;100262.30;1757579;80;21620;-39
2021/06/12 00:51:10;;;;;;;10.65;5.78;;;;;;;14.73;100.00;100270.03;1757514;81;21985;-39
2021/06/12 00:53:39;;;;;;;16.05;6.05;;;;;;;14.73;100.00;100267.43;1757374;81;20973;-39
2021/06/12 00:56:12;;;;;;;18.27;6.62;;;;;;;14.73;100.00;100266.12;1757457;81;20924;-39
2021/06/12 00:58:42;;;;;;;13.05;5.67;;;;;;;14.74;100.00;100270.42;1752976;80;21209;-38
2021/06/12 01:01:23;;;;;;;7.78;5.87;;;;;;;14.74;100.00;100267.38;1749113;82;21019;-39
2021/06/12 01:03:48;;;;;;;18.05;5.95;;;;;;;14.73;100.00;100263.08;1748266;82;21153;-39
2021/06/12 01:06:16;;;;;;;10.82;6.17;;;;;;;14.72;100.00;100261.39;1748994;81;21052;-39
2021/06/12 01:08:44;;;;;;;9.53;5.85;;;;;;;14.72;100.00;100265.73;1749432;82;21086;-38
2021/06/12 01:11:11;;;;;;;12.60;6.40;;;;;;;14.71;100.00;100264.04;1749287;82;21648;-39
2021/06/12 01:14:01;;;;;;;11.88;6.42;;;;;;;14.71;100.00;100272.72;1749133;82;20975;-39
2021/06/12 01:16:51;;;;;;;9.68;6.10;;;;;;;14.71;100.00;100264.04;1749258;82;21155;-39
2021/06/12 01:19:52;;;;;;;14.07;6.47;;;;;;;14.68;100.00;100270.64;1719726;82;21522;-38
2021/06/12 01:22:50;;;;;;;15.98;6.35;;;;;;;14.63;100.00;100263.86;1749260;82;21343;-38
2021/06/12 01:25:39;;;;;;;10.18;5.92;;;;;;;14.61;100.00;100266.11;1749047;81;20963;-39
2021/06/12 01:28:36;;;;;;;8.10;5.87;;;;;;;14.55;100.00;100268.52;1749164;82;20956;-38
2021/06/12 01:31:03;;;;;;;9.35;5.92;;;;;;;14.48;100.00;100266.59;1748966;82;21165;-39
2021/06/12 01:33:29;;;;;;;15.38;6.00;;;;;;;14.43;100.00;100263.76;1748557;82;20900;-38
2021/06/12 01:36:05;;;;;;;9.45;4.92;;;;;;;14.42;100.00;100264.23;1748515;82;20964;-38
2021/06/12 01:38:34;;;;;;;10.93;5.58;;;;;;;14.40;100.00;100265.19;1748779;82;28096;-39
2021/06/12 01:41:03;;;;;;;11.97;6.12;;;;;;;14.39;100.00;100266.92;1748629;82;21635;-39
2021/06/12 01:43:31;;;;;;;8.78;5.50;;;;;;;14.37;100.00;100263.09;1748742;82;21114;-38
2021/06/12 01:45:57;;;;;;;7.12;4.97;;;;;;;14.34;100.00;100259.30;1748438;82;21479;-39
2021/06/12 01:48:24;;;;;;;12.88;4.35;;;;;;;14.32;100.00;100261.12;1748926;82;21379;-39
2021/06/12 01:50:50;;;;;;;5.75;4.70;;;;;;;14.32;100.00;100262.86;1743771;81;21027;-39
2021/06/12 01:53:21;;;;;;;8.63;4.42;;;;;;;14.33;100.00;100258.91;1748522;82;20951;-39
2021/06/12 01:55:48;;;;;;;13.88;4.87;;;;;;;14.36;100.00;100267.91;1748560;80;21166;-38
2021/06/12 01:58:21;;;;;;;17.80;5.95;;;;;;;14.40;100.00;100261.28;1748436;81;21473;-38
2021/06/12 02:00:47;;;;;;;17.35;6.25;;;;;;;14.42;100.00;100263.36;1748463;82;21015;-38
2021/06/12 02:03:13;;;;;;;17.35;6.08;;;;;;;14.45;100.00;100261.95;1748814;82;21022;-38
2021/06/12 02:05:41;;;;;;;27.00;7.10;;;;;;;14.48;100.00;100265.73;1748440;81;20976;-39
2021/06/12 02:08:07;;;;;;;30.57;7.28;;;;;;;14.47;100.00;100257.09;1748826;82;21794;-39
2021/06/12 02:10:34;;;;;;;36.45;7.65;;;;;;;14.47;100.00;100257.09;1748648;81;21510;-39
2021/06/12 02:13:00;;;;;;;26.25;6.95;;;;;;;14.53;100.00;100262.53;1748538;82;20964;-39
2021/06/12 02:15:29;;;;;;;23.00;7.75;;;;;;;14.53;100.00;100261.22;1748430;80;20941;-39
2021/06/12 02:17:59;;;;;;;31.57;8.23;;;;;;;14.55;100.00;100263.31;1748616;82;20905;-39
2021/06/12 02:20:26;;;;;;;22.62;7.37;;;;;;;14.57;100.00;100266.70;1748620;82;21137;-40
2021/06/12 02:22:53;;;;;;;17.70;5.67;;;;;;;14.57;100.00;100271.91;1749272;82;20984;-39
2021/06/12 02:25:19;;;;;;;10.98;5.35;;;;;;;14.59;100.00;100274.44;1749434;82;21541;-39
2021/06/12 02:27:57;;;;;;;19.40;6.37;;;;;;;14.59;100.00;100276.61;1749354;82;20944;-39
2021/06/12 02:30:31;;;;;;;17.27;6.90;;;;;;;14.61;100.00;100279.14;1738879;81;20920;-38
2021/06/12 02:33:04;;;;;;;20.85;7.10;;;;;;;14.63;100.00;100280.79;1749238;82;21125;-37
2021/06/12 02:35:31;;;;;;;21.30;6.08;;;;;;;14.63;100.00;100283.83;1749295;80;20901;-38
2021/06/12 02:37:58;;;;;;;11.75;5.30;;;;;;;14.64;100.00;100287.70;1749259;82;21039;-39
2021/06/12 02:40:25;;;;;;;9.65;5.53;;;;;;;14.66;100.00;100285.88;1749326;82;20897;-38
2021/06/12 02:42:53;;;;;;;15.03;6.33;;;;;;;14.70;100.00;100285.75;1749262;82;21473;-39
2021/06/12 02:45:20;;;;;;;16.42;5.85;;;;;;;14.71;100.00;100285.74;1749269;82;21799;-38
2021/06/12 02:47:57;;;;;;;16.20;4.97;;;;;;;14.74;100.00;100286.92;1749413;82;20956;-39
2021/06/12 02:50:26;;;;;;;10.35;5.37;;;;;;;14.77;100.00;100282.03;1735263;82;21031;-38
2021/06/12 02:52:53;;;;;;;9.55;4.55;;;;;;;14.81;100.00;100286.23;1749213;82;20952;-38
2021/06/12 02:55:20;;;;;;;10.82;5.65;;;;;;;14.84;100.00;100288.72;1749258;82;21038;-39
2021/06/12 02:57:48;;;;;;;81.65;10.00;;;;;;;14.87;100.00;100294.25;1721884;82;21150;-39
2021/06/12 03:00:17;;;;;;;72.50;9.78;;;;;;;14.89;100.00;100291.99;1749135;82;21533;-38
2021/06/12 03:02:44;;;;;;;16.62;5.85;;;;;;;14.92;100.00;100292.34;1749228;80;21525;-38
2021/06/12 03:05:26;;;;;;;25.20;6.40;;;;;;;14.94;100.00;100287.44;1749293;82;20968;-39
2021/06/12 03:07:55;;;;;;;31.48;7.15;;;;;;;14.97;100.00;100287.79;1692849;82;21901;-40
2021/06/12 03:10:23;;;;;;;57.17;7.72;;;;;;;15.00;100.00;100278.98;1749201;82;21755;-38
2021/06/12 03:12:49;;;;;;;14.80;5.50;;;;;;;15.04;100.00;100275.37;1749149;80;21526;-39
2021/06/12 03:15:16;;;;;;;35.30;7.15;;;;;;;15.07;100.00;100277.84;1721900;82;20945;-38
2021/06/12 03:17:44;;;;;;;11.70;4.70;;;;;;;15.11;100.00;100277.25;1721736;82;20943;-40
2021/06/12 03:20:14;;;;;;;3.87;3.55;;;;;;;15.13;100.00;100281.50;1748435;80;20968;-39
2021/06/12 03:22:44;;;;;;;5.08;4.40;;;;;;;15.17;100.00;100281.77;1735195;82;21375;-39
2021/06/12 03:25:12;;;;;;;5.97;4.15;;;;;;;15.20;100.00;100281.64;1735210;82;22146;-39
2021/06/12 03:27:41;;;;;;;13.98;4.60;;;;;;;15.23;100.00;100280.68;1735282;82;21012;-40
2021/06/12 03:30:10;;;;;;;12.15;4.60;;;;;;;15.26;100.00;100284.91;1735282;82;21573;-38
2021/06/12 03:32:36;;;;;;;10.00;3.90;;;;;;;15.28;100.00;100289.59;1735354;82;21315;-38
2021/06/12 03:35:05;;;;;;;5.80;4.20;;;;;;;15.31;100.00;100296.02;1735312;82;21084;-39
2021/06/12 03:37:32;;;;;;;7.95;4.30;;;;;;;15.35;100.00;100294.98;1735337;82;20956;-38
2021/06/12 03:40:00;;;;;;;5.65;4.20;;;;;;;15.42;100.00;100292.97;1735303;82;21008;-39
2021/06/12 03:42:26;;;;;;;17.17;4.15;;;;;;;15.56;100.00;100293.23;1735390;82;21000;-39
2021/06/12 03:44:55;;;;;;;5.72;3.52;;;;;;;15.77;100.00;100296.68;1735458;81;22175;-38
2021/06/12 03:47:22;;;;;;;5.53;3.62;;;;;;;16.07;100.00;100299.38;1735291;82;21162;-38
2021/06/12 03:49:51;;;;;;;6.05;3.47;;;;;;;16.37;100.00;100294.56;1735140;82;21076;-39
2021/06/12 03:52:23;;;;;;;4.87;3.33;;;;;;;16.66;100.00;100296.29;1735163;82;21015;-38
2021/06/12 03:54:51;;;;;;;8.90;3.42;;;;;;;16.89;100.00;100297.42;1735522;82;21487;-39
2021/06/12 03:57:19;;;;;;;5.67;3.30;;;;;;;16.98;100.00;100300.06;1735302;82;20968;-39
2021/06/12 03:59:45;;;;;;;7.70;3.02;;;;;;;17.05;100.00;100304.10;1735190;82;21062;-39
2021/06/12 04:02:13;;;;;;;5.67;3.35;;;;;;;17.14;99.21;100308.91;1735260;82;20969;-40
2021/06/12 04:04:39;;;;;;;6.37;3.50;;;;;;;17.23;98.10;100307.14;1735248;82;20917;-39
2021/06/12 04:07:06;;;;;;;3.98;2.65;;;;;;;17.30;97.33;100309.45;1735206;82;20949;-39
2021/06/12 04:09:32;;;;;;;5.12;2.60;;;;;;;17.38;96.41;100308.64;1735330;82;20972;-39
2021/06/12 04:11:59;;;;;;;4.50;2.70;;;;;;;17.40;95.10;100315.08;1735294;82;21119;-40
2021/06/12 04:14:25;;;;;;;2.52;2.33;;;;;;;17.36;94.05;100320.95;1735235;82;20933;-40
2021/06/12 04:16:52;;;;;;;2.40;2.20;;;;;;;17.33;93.48;100323.24;1735320;82;20922;-39
2021/06/12 04:19:18;;;;;;;4.28;2.83;;;;;;;17.37;93.34;100322.16;1735347;82;21015;-39
2021/06/12 04:21:45;;;;;;;5.25;2.70;;;;;;;17.41;92.60;100320.25;1735239;82;21051;-40
2021/06/12 04:24:12;;;;;;;4.17;3.27;;;;;;;17.46;91.93;100323.48;1735243;82;22373;-39
2021/06/12 04:26:39;;;;;;;4.75;3.30;;;;;;;17.48;90.98;100326.87;1735248;82;20925;-39
2021/06/12 04:29:05;;;;;;;6.50;2.83;;;;;;;17.60;90.52;100321.48;1735178;82;20980;-40
2021/06/12 04:31:33;;;;;;;5.78;3.08;;;;;;;17.70;89.94;100325.80;1735295;82;20980;-39
2021/06/12 04:34:00;;;;;;;4.40;2.80;;;;;;;17.81;88.85;100333.11;1735175;82;21032;-39
2021/06/12 04:36:26;;;;;;;3.40;3.10;;;;;;;17.90;87.92;100326.56;1735267;82;21154;-40
2021/06/12 04:38:53;;;;;;;5.40;3.15;;;;;;;17.98;87.42;100330.11;1735239;82;21481;-40
2021/06/12 04:41:19;;;;;;;7.37;3.95;;;;;;;18.11;86.95;100335.59;1735429;82;21518;-40
2021/06/12 04:43:47;;;;;;;6.35;3.27;;;;;;;18.23;86.07;100334.93;1735119;81;21513;-40
2021/06/12 04:46:14;;;;;;;6.33;3.30;;;;;;;18.47;86.56;100334.11;1735192;82;20933;-40
2021/06/12 04:48:41;;;;;;;3.98;3.65;;;;;;;18.74;85.59;100335.30;1735279;82;21143;-41
2021/06/12 04:51:07;;;;;;;6.42;3.35;;;;;;;18.87;83.96;100345.52;1735212;81;20922;-39
2021/06/12 04:53:35;;;;;;;3.40;3.20;;;;;;;18.95;82.76;100343.78;1735294;82;21059;-40
2021/06/12 04:56:01;;;;;;;5.15;3.60;;;;;;;18.98;81.93;100344.06;1735232;82;20941;-41
2021/06/12 04:58:27;;;;;;;3.10;2.80;;;;;;;18.97;81.15;100345.85;1735413;82;21055;-39
2021/06/12 05:00:54;;;;;;;9.33;3.35;;;;;;;18.95;79.85;100352.48;1735130;82;21151;-41
2021/06/12 05:03:20;;;;;;;5.80;3.10;;;;;;;18.95;80.56;100347.23;1735266;82;20984;-39
2021/06/12 05:05:48;;;;;;;4.08;3.45;;;;;;;19.01;80.75;100345.23;1735247;82;20984;-40
2021/06/12 05:08:16;;;;;;;12.05;3.65;;;;;;;19.09;80.12;100353.54;1735475;82;20920;-41
2021/06/12 05:10:44;;;;;;;6.17;2.80;;;;;;;19.16;80.06;100352.25;1735328;82;20885;-41
2021/06/12 05:13:10;;;;;;;3.98;3.20;;;;;;;19.33;79.12;100354.40;1735566;82;21191;-41
2021/06/12 05:15:38;;;;;;;5.33;3.22;;;;;;;19.53;78.76;100347.52;1735323;82;20877;-41
2021/06/12 05:18:06;;;;;;;7.30;3.75;;;;;;;19.71;78.14;100342.14;1735821;82;20976;-40
2021/06/12 05:20:35;;;;;;;4.47;3.05;;;;;;;19.95;77.56;100342.48;1735369;82;21514;-40
2021/06/12 05:23:03;;;;;;;5.92;3.47;;;;;;;20.24;77.69;100345.61;1735359;81;20941;-39
2021/06/12 05:25:31;;;;;;;5.53;3.25;;;;;;;20.51;77.68;100342.23;1735504;82;21889;-40
2021/06/12 05:27:57;;;;;;;4.72;2.98;;;;;;;20.74;73.81;100343.43;1735226;82;21031;-39
2021/06/12 05:30:24;;;;;;;10.00;4.17;;;;;;;20.77;73.71;100348.49;1735643;82;20988;-40
2021/06/12 05:32:50;;;;;;;4.40;3.45;;;;;;;20.80;73.91;100342.20;1735366;82;20929;-40
2021/06/12 05:35:17;;;;;;;6.22;3.33;;;;;;;21.03;73.07;100349.11;1735414;82;20976;-39
2021/06/12 05:37:44;;;;;;;4.92;3.65;;;;;;;21.10;72.00;100345.16;1735442;82;21221;-40
2021/06/12 05:40:12;;;;;;;4.15;3.30;;;;;;;21.20;71.51;100344.92;1735191;82;20976;-39
2021/06/12 05:42:39;;;;;;;4.97;3.30;;;;;;;21.33;73.11;100348.05;1735280;82;20949;-39
2021/06/12 05:45:08;;;;;;;3.62;2.45;;;;;;;21.59;72.01;100350.30;1735500;82;21459;-39
2021/06/12 05:47:34;;;;;;;6.90;3.45;;;;;;;21.56;70.60;100347.88;1735253;82;20940;-39
2021/06/12 05:50:01;;;;;;;6.12;3.55;;;;;;;21.30;69.71;100349.58;1735397;82;21141;-40
2021/06/12 05:52:27;;;;;;;11.83;3.58;;;;;;;21.39;72.00;100351.63;1735262;82;20972;-41
2021/06/12 05:54:54;;;;;;;2.92;2.65;;;;;;;21.81;72.12;100344.94;1735630;82;20964;-39
2021/06/12 05:57:20;;;;;;;5.58;2.98;;;;;;;22.20;70.49;100340.50;1735273;82;21483;-41
2021/06/12 05:59:46;;;;;;;3.20;2.90;;;;;;;22.47;69.41;100344.00;1735454;82;21459;-41
2021/06/12 06:02:13;;;;;;;2.85;2.58;;;;;;;22.75;68.66;100344.67;1735321;82;21134;-40
2021/06/12 06:04:40;;;;;;;2.37;2.17;;;;;;;22.89;67.22;100347.62;1735161;82;20960;-41
2021/06/12 06:07:06;;;;;;;2.42;2.27;;;;;;;22.84;66.50;100347.12;1735368;82;21019;-40
2021/06/12 06:09:33;;;;;;;6.33;2.50;;;;;;;22.66;66.27;100350.98;1735349;82;20933;-40
2021/06/12 06:12:00;;;;;;;2.05;1.70;;;;;;;22.51;66.39;100350.27;1735346;82;20993;-41
2021/06/12 06:14:26;;;;;;;2.08;1.87;;;;;;;22.24;64.93;100345.95;1735565;82;21078;-41
2021/06/12 06:16:53;;;;;;;2.60;1.90;;;;;;;21.77;65.94;100345.61;1735197;82;20937;-40
2021/06/12 06:19:19;;;;;;;3.37;1.95;;;;;;;21.57;68.48;100352.19;1735319;82;20953;-39
2021/06/12 06:21:46;;;;;;;2.45;1.80;;;;;;;21.49;66.75;100348.73;1735120;81;20972;-40
2021/06/12 06:24:13;;;;;;;1.72;1.60;;;;;;;21.41;66.84;100357.62;1735357;82;20976;-40
2021/06/12 06:26:39;;;;;;;2.95;1.30;;;;;;;21.59;68.40;100350.30;1735351;82;21135;-39
2021/06/12 06:29:05;;;;;;;1.80;1.67;;;;;;;21.87;66.51;100347.64;1735208;81;20972;-40
2021/06/12 06:31:32;;;;;;;1.90;1.70;;;;;;;22.04;64.29;100345.16;1735453;82;20988;-39
2021/06/12 06:33:58;;;;;;;6.58;1.57;;;;;;;22.10;63.45;100345.59;1735587;82;20909;-40
2021/06/12 06:36:25;;;;;;;1.17;1.17;;;;;;;21.95;64.22;100348.78;1735577;82;21423;-40
2021/06/12 06:38:52;;;;;;;5.53;1.90;;;;;;;22.05;62.88;100352.95;1735377;82;21897;-40
2021/06/12 06:41:19;;;;;;;9.33;2.05;;;;;;;21.96;63.53;100354.91;1735197;82;21514;-41
2021/06/12 06:43:46;;;;;;;5.28;1.87;;;;;;;21.93;63.94;100357.27;1735188;82;21070;-40
2021/06/12 06:46:12;;;;;;;4.08;1.60;;;;;;;21.92;64.43;100356.06;1735229;82;20957;-41
2021/06/12 06:48:39;;;;;;;4.65;1.62;;;;;;;21.99;64.89;100356.01;1735387;82;20989;-40
2021/06/12 06:51:05;;;;;;;2.12;2.02;;;;;;;22.19;64.48;100358.59;1735362;82;21062;-41
2021/06/12 06:53:33;;;;;;;2.98;2.67;;;;;;;22.46;63.34;100359.42;1735285;82;21542;-40
2021/06/12 06:56:04;;;;;;;2.83;2.20;;;;;;;22.52;61.92;100356.38;1735305;82;20960;-41
2021/06/12 06:58:31;;;;;;;3.05;2.40;;;;;;;22.53;62.10;100351.00;1735262;81;21007;-41
2021/06/12 07:00:57;;;;;;;3.02;2.70;;;;;;;22.85;61.47;100347.49;1735154;82;21004;-40
2021/06/12 07:03:24;;;;;;;2.08;1.98;;;;;;;23.33;60.18;100347.53;1735605;82;21155;-40
2021/06/12 07:05:53;;;;;;;2.47;1.98;;;;;;;23.96;60.50;100344.56;1735308;82;21510;-41
2021/06/12 07:08:20;;;;;;;4.65;2.40;;;;;;;24.64;58.17;100338.95;1735513;82;20937;-40
2021/06/12 07:10:49;;;;;;;6.15;1.60;;;;;;;25.13;56.63;100339.94;1735232;82;21008;-39
2021/06/12 07:13:23;;;;;;;5.12;1.55;;;;;;;25.22;56.00;100336.06;1735379;81;20921;-40
2021/06/12 07:15:52;;;;;;;2.47;1.57;;;;;;;25.20;56.25;100344.62;1735182;82;21490;-40
2021/06/12 07:18:18;;;;;;;3.52;2.25;;;;;;;24.87;54.66;100338.44;1735308;82;21475;-40
2021/06/12 07:20:47;;;;;;;1.80;1.70;;;;;;;24.45;55.96;100342.23;1735232;82;21743;-39
2021/06/12 07:23:15;;;;;;;2.70;1.92;;;;;;;24.49;55.23;100344.48;1745801;81;20948;-39
2021/06/12 07:25:45;;;;;;;2.33;2.17;;;;;;;24.20;55.74;100340.19;1749298;82;21003;-39
2021/06/12 07:28:12;;;;;;;5.40;2.27;;;;;;;24.17;56.48;100341.75;1748627;82;21065;-40
2021/06/12 07:30:40;;;;;;;2.58;2.20;;;;;;;24.35;56.06;100343.43;1749071;82;20984;-40
2021/06/12 07:33:10;;;;;;;4.22;1.92;;;;;;;24.29;56.55;100343.42;1749159;82;20968;-40
2021/06/12 07:35:38;;;;;;;1.95;1.85;;;;;;;24.31;57.21;100346.78;1749418;82;20967;-39
2021/06/12 07:38:04;;;;;;;2.40;2.20;;;;;;;24.24;56.54;100349.06;1749250;82;21003;-40
2021/06/12 07:40:31;;;;;;;2.10;2.00;;;;;;;24.07;58.26;100345.09;1749267;82;21944;-41
2021/06/12 07:42:58;;;;;;;19.02;3.90;;;;;;;23.94;58.91;100348.30;1749211;82;21472;-41
2021/06/12 07:45:25;;;;;;;21.20;3.20;;;;;;;23.63;59.99;100344.04;1749204;82;20964;-39
2021/06/12 07:47:52;;;;;;;13.15;3.83;;;;;;;23.35;60.24;100354.00;1749235;82;20963;-39
2021/06/12 07:50:19;;;;;;;5.25;3.20;;;;;;;22.89;62.62;100352.45;1749554;82;21015;-40
2021/06/12 07:52:45;;;;;;;6.47;3.37;;;;;;;22.50;64.14;100353.00;1749190;82;21150;-40
2021/06/12 07:55:14;;;;;;;3.85;3.20;;;;;;;22.04;65.53;100355.22;1749279;82;20996;-40
2021/06/12 07:57:42;;;;;;;3.60;3.35;;;;;;;21.83;66.31;100348.31;1749153;82;20956;-41
2021/06/12 08:00:10;;;;;;;7.35;3.17;;;;;;;21.71;66.11;100352.61;1749249;82;20971;-40
2021/06/12 08:02:39;;;;;;;8.75;3.42;;;;;;;21.50;67.32;100355.70;1749176;82;20917;-41
2021/06/12 08:05:07;;;;;;;48.87;5.53;;;;;;;21.37;68.56;100354.83;1749268;82;21978;-41
2021/06/12 08:07:34;;;;;;;12.28;4.05;;;;;;;21.37;69.71;100355.66;1749234;82;21186;-40
2021/06/12 08:10:02;;;;;;;4.97;3.02;;;;;;;21.43;70.48;100358.37;1749444;82;21300;-40
2021/06/12 08:12:31;;;;;;;9.45;3.80;;;;;;;21.49;69.42;100361.91;1749170;82;21455;-40
2021/06/12 08:14:59;;;;;;;10.75;3.27;;;;;;;21.47;69.37;100363.80;1749138;81;20952;-40
2021/06/12 08:17:25;;;;;;;31.33;4.08;;;;;;;21.52;69.63;100364.82;1749501;82;21104;-41
2021/06/12 08:19:52;;;;;;;12.10;3.55;;;;;;;21.53;70.66;100355.48;1721441;82;21023;-40
2021/06/12 08:22:19;;;;;;;9.50;3.35;;;;;;;21.62;70.61;100356.67;1745955;82;21458;-40
2021/06/12 08:24:46;;;;;;;9.45;3.90;;;;;;;21.66;70.48;100353.41;1735160;82;21003;-40
2021/06/12 08:27:12;;;;;;;38.42;5.10;;;;;;;21.60;70.34;100352.44;1735207;82;21411;-40
2021/06/12 08:29:39;;;;;;;69.20;4.75;;;;;;;21.53;70.33;100363.88;1735240;82;21877;-40
2021/06/12 08:32:06;;;;;;;4.28;3.20;;;;;;;21.46;70.70;100354.22;1735040;82;20977;-39
2021/06/12 08:34:33;;;;;;;21.02;4.67;;;;;;;21.53;71.33;100352.85;1735308;82;20965;-40
2021/06/12 08:37:02;;;;;;;19.62;4.30;;;;;;;21.63;72.06;100352.26;1735514;82;20980;-40
2021/06/12 08:39:29;;;;;;;23.50;4.95;;;;;;;21.91;70.89;100352.58;1735213;82;20930;-40
2021/06/12 08:41:55;;;;;;;8.95;4.55;;;;;;;22.40;69.81;100348.82;1735414;82;21106;-39
2021/06/12 08:44:26;;;;;;;12.75;4.80;;;;;;;22.77;66.69;100345.40;1735354;82;21478;-39
2021/06/12 08:46:52;;;;;;;6.83;4.33;;;;;;;23.00;66.55;100341.58;1735610;82;21533;-39
2021/06/12 08:49:20;;;;;;;15.70;3.90;;;;;;;23.37;65.50;100342.88;1735322;82;20897;-40
2021/06/12 08:51:47;;;;;;;7.03;3.40;;;;;;;23.94;63.46;100341.69;1735377;82;20968;-41
2021/06/12 08:54:16;;;;;;;8.40;3.12;;;;;;;24.42;62.94;100342.47;1735480;82;21142;-41
2021/06/12 08:56:45;;;;;;;3.15;2.92;;;;;;;24.69;60.33;100343.39;1735189;82;21028;-40
2021/06/12 08:59:13;;;;;;;3.15;2.45;;;;;;;24.73;59.03;100341.34;1735424;82;21511;-39
2021/06/12 09:01:42;;;;;;;2.33;2.12;;;;;;;24.99;57.37;100347.19;1735540;81;21012;-41
2021/06/12 09:04:08;;;;;;;2.98;2.55;;;;;;;25.31;55.23;100349.03;1735396;81;20913;-40
2021/06/12 09:06:34;;;;;;;3.47;2.80;;;;;;;25.32;56.72;100340.58;1735625;81;21258;-41
2021/06/12 09:09:02;;;;;;;3.20;3.00;;;;;;;25.69;55.87;100340.20;1735261;82;20949;-41
2021/06/12 09:11:34;;;;;;;1.60;1.60;;;;;;;25.88;54.28;100343.91;1735670;82;21016;-41
2021/06/12 09:14:02;;;;;;;1.98;1.87;;;;;;;25.72;50.89;100348.36;1735270;82;20921;-40
2021/06/12 09:16:38;;;;;;;2.20;1.70;;;;;;;25.19;53.69;100350.02;1735333;82;20917;-41
2021/06/12 09:19:17;;;;;;;2.02;1.82;;;;;;;24.81;55.08;100356.14;1735347;82;21774;-40
2021/06/12 09:21:53;;;;;;;2.08;1.47;;;;;;;24.08;56.84;100350.73;1735292;82;20933;-40
2021/06/12 09:24:49;;;;;;;1.65;1.40;;;;;;;23.60;58.54;100350.84;1734905;82;20985;-39
2021/06/12 09:27:16;;;;;;;5.55;1.60;;;;;;;23.41;57.33;100354.89;1734957;82;20992;-40
2021/06/12 09:29:46;;;;;;;4.17;1.80;;;;;;;23.04;61.54;100349.17;1735664;82;21004;-42
2021/06/12 09:32:23;;;;;;;3.40;1.75;;;;;;;22.59;63.98;100354.98;1735393;82;21154;-40
2021/06/12 09:34:56;;;;;;;3.15;1.50;;;;;;;22.25;66.21;100346.78;1735351;82;21518;-41
2021/06/12 09:37:28;;;;;;;5.05;1.80;;;;;;;22.03;67.33;100346.94;1735541;82;20976;-41
2021/06/12 09:40:04;;;;;;;5.37;1.30;;;;;;;21.93;67.95;100344.09;1735241;82;20976;-40
2021/06/12 09:42:52;;;;;;;4.95;1.95;;;;;;;21.90;68.65;100347.42;1735594;82;20984;-40
2021/06/12 09:45:34;;;;;;;1.75;1.65;;;;;;;21.97;68.76;100340.78;1735409;82;21108;-40
2021/06/12 09:48:15;;;;;;;2.22;2.02;;;;;;;22.02;69.29;100334.72;1735561;82;20941;-39
2021/06/12 09:50:43;;;;;;;3.35;3.05;;;;;;;22.06;68.60;100338.83;1735213;82;20956;-40
2021/06/12 09:53:14;;;;;;;6.65;2.80;;;;;;;22.21;69.60;100340.04;1735578;82;20923;-40
2021/06/12 09:55:41;;;;;;;4.92;3.02;;;;;;;22.50;68.76;100339.82;1735361;82;21004;-40
2021/06/12 09:58:07;;;;;;;4.40;4.10;;;;;;;22.91;68.34;100339.13;1735302;82;21148;-40
2021/06/12 10:00:41;;;;;;;1.90;1.80;;;;;;;23.19;68.37;100336.64;1735251;82;21608;-40
2021/06/12 10:03:28;;;;;;;2.95;1.90;;;;;;;23.20;67.57;100342.28;1735269;82;20972;-40
2021/06/12 10:06:23;;;;;;;3.20;1.50;;;;;;;23.03;67.39;100346.16;1735018;82;21621;-38
2021/06/12 10:08:52;;;;;;;1.67;1.57;;;;;;;22.82;67.50;100345.44;1739388;82;20952;-41
2021/06/12 10:11:26;;;;;;;1.30;1.30;;;;;;;22.68;67.20;100342.48;1736154;81;21129;-39
2021/06/12 10:13:52;;;;;;;1.50;1.50;;;;;;;22.60;66.97;100346.61;1735234;82;21037;-40
2021/06/12 10:16:21;;;;;;;5.87;1.72;;;;;;;22.50;66.26;100350.37;1735442;82;21427;-41
2021/06/12 10:18:52;;;;;;;2.58;2.37;;;;;;;22.57;67.22;100342.38;1735265;82;20977;-38
2021/06/12 10:21:18;;;;;;;3.70;2.37;;;;;;;22.71;66.30;100340.56;1735321;82;21026;-41
2021/06/12 10:23:47;;;;;;;2.08;1.87;;;;;;;23.11;66.14;100337.66;1735220;81;21134;-41
2021/06/12 10:26:16;;;;;;;1.95;1.85;;;;;;;23.60;64.53;100332.36;1735285;81;20984;-41
2021/06/12 10:28:43;;;;;;;2.80;2.60;;;;;;;24.07;63.47;100323.12;1735340;82;21083;-40
2021/06/12 10:31:17;;;;;;;3.22;2.35;;;;;;;24.63;63.60;100334.16;1735266;82;21509;-41
2021/06/12 10:33:47;;;;;;;8.08;2.20;;;;;;;25.08;62.11;100325.28;1734832;82;21095;-40
2021/06/12 10:36:20;;;;;;;2.80;2.60;;;;;;;25.36;61.92;100324.31;1735266;82;21068;-40
2021/06/12 10:38:48;;;;;;;3.30;2.50;;;;;;;25.51;58.02;100322.22;1735307;82;21494;-40
2021/06/12 10:41:27;;;;;;;2.98;2.20;;;;;;;25.51;58.58;100318.72;1735323;81;20959;-41
2021/06/12 10:43:58;;;;;;;4.90;2.33;;;;;;;25.70;57.61;100315.37;1735263;82;20936;-40
2021/06/12 10:46:27;;;;;;;2.25;2.10;;;;;;;26.08;55.65;100307.25;1735545;82;21565;-41
2021/06/12 10:48:59;;;;;;;3.90;2.20;;;;;;;26.24;54.64;100315.25;1735210;82;21131;-40
2021/06/12 10:51:31;;;;;;;2.75;2.55;;;;;;;26.28;56.07;100311.34;1735479;82;20894;-40
2021/06/12 10:54:19;;;;;;;3.25;2.37;;;;;;;26.53;56.58;100310.52;1735391;82;21015;-41
2021/06/12 10:57:15;;;;;;;5.08;2.85;;;;;;;26.24;56.19;100309.94;1735342;82;21466;-40
2021/06/12 10:59:51;;;;;;;8.23;5.90;;;;;;;25.72;58.53;100319.20;1735324;82;20972;-40
2021/06/12 11:02:27;;;;;;;6.27;3.90;;;;;;;25.47;59.73;100316.83;1735734;82;21106;-39
2021/06/12 11:05:03;;;;;;;4.40;3.50;;;;;;;25.41;60.58;100312.02;1734902;82;20952;-41
2021/06/12 11:07:42;;;;;;;7.67;2.90;;;;;;;25.64;60.27;100307.45;1734618;82;20980;-41
2021/06/12 11:10:18;;;;;;;6.62;2.87;;;;;;;26.08;59.85;100296.65;1735259;81;21027;-39
2021/06/12 11:12:47;;;;;;;6.33;2.72;;;;;;;26.47;59.63;100301.78;1735231;82;20936;-39
2021/06/12 11:15:27;;;;;;;2.60;2.40;;;;;;;26.74;54.31;100298.96;1735217;82;21132;-40
2021/06/12 11:18:19;;;;;;;2.67;2.47;;;;;;;26.78;53.44;100296.38;1735169;82;21058;-39
2021/06/12 11:21:01;;;;;;;5.22;2.70;;;;;;;26.71;54.33;100292.10;1735172;82;20993;-40
2021/06/12 11:23:55;;;;;;;2.90;2.05;;;;;;;26.95;52.88;100298.86;1739228;82;21030;-40
2021/06/12 11:26:22;;;;;;;19.20;2.92;;;;;;;26.99;53.08;100288.81;1749220;82;20948;-41
2021/06/12 11:29:10;;;;;;;47.17;3.62;;;;;;;27.33;49.72;100274.61;1749329;80;21203;-41
2021/06/12 11:31:38;;;;;;;24.52;3.02;;;;;;;27.40;45.41;100277.51;1748856;82;20929;-40
2021/06/12 11:34:25;;;;;;;20.32;2.58;;;;;;;27.11;45.25;100282.37;1749111;82;20940;-39